sensor_id;sensor_type;location;lat;lon;timestamp;P1;durP1;ratioP1;P2;durP2;ratioP2
76157;SDS011;64907;51.574;6.502;2023-03-05T00:01:22;9.52;;;2.40;;
76157;SDS011;64907;51.574;6.502;2023-03-05T00:06:24;7.78;;;2.47;;
76157;SDS011;64907;51.574;6.502;2023-03-05T00:08:50;10.35;;;2.60;;
76157;SDS011;64907;51.574;6.502;2023-03-05T00:11:17;14.00;;;2.60;;
76157;SDS011;64907;51.574;6.502;2023-03-05T00:16:17;14.80;;;3.08;;
76157;SDS011;64907;51.574;6.502;2023-03-05T00:18:43;9.82;;;2.88;;
76157;SDS011;64907;51.574;6.502;2023-03-05T00:21:29;9.77;;;2.88;;
76157;SDS011;64907;51.574;6.502;2023-03-05T00:23:55;11.95;;;2.65;;
76157;SDS011;64907;51.574;6.502;2023-03-05T00:26:21;8.68;;;2.95;;
76157;SDS011;64907;51.574;6.502;2023-03-05T00:28:47;9.88;;;2.60;;
76157;SDS011;64907;51.574;6.502;2023-03-05T00:31:14;10.93;;;2.80;;
76157;SDS011;64907;51.574;6.502;2023-03-05T00:33:39;8.85;;;3.13;;
76157;SDS011;64907;51.574;6.502;2023-03-05T00:36:05;11.10;;;3.33;;
76157;SDS011;64907;51.574;6.502;2023-03-05T00:38:30;14.10;;;3.20;;
76157;SDS011;64907;51.574;6.502;2023-03-05T00:40:55;11.75;;;3.65;;
76157;SDS011;64907;51.574;6.502;2023-03-05T00:43:21;12.20;;;3.00;;
76157;SDS011;64907;51.574;6.502;2023-03-05T00:45:47;8.88;;;2.58;;
76157;SDS011;64907;51.574;6.502;2023-03-05T00:48:12;15.32;;;3.75;;
76157;SDS011;64907;51.574;6.502;2023-03-05T00:50:37;11.00;;;2.90;;
76157;SDS011;64907;51.574;6.502;2023-03-05T00:53:02;16.97;;;3.73;;
76157;SDS011;64907;51.574;6.502;2023-03-05T00:55:28;13.80;;;2.75;;
76157;SDS011;64907;51.574;6.502;2023-03-05T00:57:54;11.82;;;3.38;;
76157;SDS011;64907;51.574;6.502;2023-03-05T01:00:19;7.45;;;2.75;;
76157;SDS011;64907;51.574;6.502;2023-03-05T01:02:44;11.95;;;3.20;;
76157;SDS011;64907;51.574;6.502;2023-03-05T01:05:10;13.18;;;2.95;;
76157;SDS011;64907;51.574;6.502;2023-03-05T01:07:36;19.52;;;3.08;;
76157;SDS011;64907;51.574;6.502;2023-03-05T01:10:01;9.13;;;2.60;;
76157;SDS011;64907;51.574;6.502;2023-03-05T01:12:26;7.57;;;2.83;;
76157;SDS011;64907;51.574;6.502;2023-03-05T01:14:52;10.07;;;2.80;;
76157;SDS011;64907;51.574;6.502;2023-03-05T01:17:17;15.77;;;3.22;;
76157;SDS011;64907;51.574;6.502;2023-03-05T01:19:42;16.33;;;3.40;;
76157;SDS011;64907;51.574;6.502;2023-03-05T01:22:07;12.20;;;3.00;;
76157;SDS011;64907;51.574;6.502;2023-03-05T01:24:32;16.03;;;5.37;;
76157;SDS011;64907;51.574;6.502;2023-03-05T01:26:57;11.73;;;4.07;;
76157;SDS011;64907;51.574;6.502;2023-03-05T01:29:23;15.45;;;4.10;;
76157;SDS011;64907;51.574;6.502;2023-03-05T01:31:48;14.95;;;3.83;;
76157;SDS011;64907;51.574;6.502;2023-03-05T01:34:13;12.50;;;4.28;;
76157;SDS011;64907;51.574;6.502;2023-03-05T01:36:41;20.52;;;4.15;;
76157;SDS011;64907;51.574;6.502;2023-03-05T01:39:07;12.98;;;4.40;;
76157;SDS011;64907;51.574;6.502;2023-03-05T01:41:32;13.48;;;4.35;;
76157;SDS011;64907;51.574;6.502;2023-03-05T01:43:58;11.75;;;3.63;;
76157;SDS011;64907;51.574;6.502;2023-03-05T01:51:28;9.93;;;3.33;;
76157;SDS011;64907;51.574;6.502;2023-03-05T01:53:54;12.23;;;3.90;;
76157;SDS011;64907;51.574;6.502;2023-03-05T01:56:21;16.20;;;3.72;;
76157;SDS011;64907;51.574;6.502;2023-03-05T01:58:46;8.25;;;3.40;;
76157;SDS011;64907;51.574;6.502;2023-03-05T02:01:13;8.30;;;3.08;;
76157;SDS011;64907;51.574;6.502;2023-03-05T02:03:39;12.65;;;3.45;;
76157;SDS011;64907;51.574;6.502;2023-03-05T02:06:05;10.75;;;3.15;;
76157;SDS011;64907;51.574;6.502;2023-03-05T02:08:33;10.38;;;3.13;;
76157;SDS011;64907;51.574;6.502;2023-03-05T02:10:58;11.68;;;2.97;;
76157;SDS011;64907;51.574;6.502;2023-03-05T02:13:26;9.77;;;3.80;;
76157;SDS011;64907;51.574;6.502;2023-03-05T02:15:52;9.45;;;3.15;;
76157;SDS011;64907;51.574;6.502;2023-03-05T02:18:18;7.07;;;3.22;;
76157;SDS011;64907;51.574;6.502;2023-03-05T02:23:15;10.55;;;2.78;;
76157;SDS011;64907;51.574;6.502;2023-03-05T02:25:41;4.82;;;3.10;;
76157;SDS011;64907;51.574;6.502;2023-03-05T02:28:08;11.60;;;3.10;;
76157;SDS011;64907;51.574;6.502;2023-03-05T02:30:34;8.98;;;3.55;;
76157;SDS011;64907;51.574;6.502;2023-03-05T02:33:00;11.27;;;2.78;;
76157;SDS011;64907;51.574;6.502;2023-03-05T02:35:25;7.40;;;2.70;;
76157;SDS011;64907;51.574;6.502;2023-03-05T02:37:50;8.63;;;3.40;;
76157;SDS011;64907;51.574;6.502;2023-03-05T02:40:15;9.70;;;3.70;;
76157;SDS011;64907;51.574;6.502;2023-03-05T02:42:41;6.27;;;2.60;;
76157;SDS011;64907;51.574;6.502;2023-03-05T02:45:07;9.43;;;3.35;;
76157;SDS011;64907;51.574;6.502;2023-03-05T02:47:32;6.43;;;2.70;;
76157;SDS011;64907;51.574;6.502;2023-03-05T02:49:57;6.55;;;2.20;;
76157;SDS011;64907;51.574;6.502;2023-03-05T02:52:23;12.15;;;3.05;;
76157;SDS011;64907;51.574;6.502;2023-03-05T02:54:49;9.15;;;2.30;;
76157;SDS011;64907;51.574;6.502;2023-03-05T02:57:14;10.38;;;2.17;;
76157;SDS011;64907;51.574;6.502;2023-03-05T02:59:40;9.18;;;2.28;;
76157;SDS011;64907;51.574;6.502;2023-03-05T03:04:34;8.63;;;2.47;;
76157;SDS011;64907;51.574;6.502;2023-03-05T03:06:59;8.55;;;2.08;;
76157;SDS011;64907;51.574;6.502;2023-03-05T03:09:32;7.25;;;2.22;;
76157;SDS011;64907;51.574;6.502;2023-03-05T03:11:57;8.43;;;2.67;;
76157;SDS011;64907;51.574;6.502;2023-03-05T03:14:22;9.63;;;2.90;;
76157;SDS011;64907;51.574;6.502;2023-03-05T03:16:47;7.87;;;2.47;;
76157;SDS011;64907;51.574;6.502;2023-03-05T03:19:16;10.77;;;2.80;;
76157;SDS011;64907;51.574;6.502;2023-03-05T03:21:41;12.82;;;2.70;;
76157;SDS011;64907;51.574;6.502;2023-03-05T03:24:06;11.98;;;3.28;;
76157;SDS011;64907;51.574;6.502;2023-03-05T03:26:31;8.93;;;3.53;;
76157;SDS011;64907;51.574;6.502;2023-03-05T03:28:56;11.27;;;3.35;;
76157;SDS011;64907;51.574;6.502;2023-03-05T03:31:22;10.82;;;3.85;;
76157;SDS011;64907;51.574;6.502;2023-03-05T03:33:47;14.40;;;4.10;;
76157;SDS011;64907;51.574;6.502;2023-03-05T03:36:13;17.33;;;3.88;;
76157;SDS011;64907;51.574;6.502;2023-03-05T03:38:38;12.52;;;4.55;;
76157;SDS011;64907;51.574;6.502;2023-03-05T03:41:07;18.13;;;4.93;;
76157;SDS011;64907;51.574;6.502;2023-03-05T03:43:33;14.13;;;4.28;;
76157;SDS011;64907;51.574;6.502;2023-03-05T03:45:58;6.43;;;3.80;;
76157;SDS011;64907;51.574;6.502;2023-03-05T03:48:23;13.55;;;4.38;;
76157;SDS011;64907;51.574;6.502;2023-03-05T03:50:48;10.90;;;4.22;;
76157;SDS011;64907;51.574;6.502;2023-03-05T03:53:13;9.18;;;4.13;;
76157;SDS011;64907;51.574;6.502;2023-03-05T03:55:40;10.85;;;4.22;;
76157;SDS011;64907;51.574;6.502;2023-03-05T03:58:09;7.75;;;4.35;;
76157;SDS011;64907;51.574;6.502;2023-03-05T04:00:34;13.07;;;4.25;;
76157;SDS011;64907;51.574;6.502;2023-03-05T04:03:00;16.98;;;5.47;;
76157;SDS011;64907;51.574;6.502;2023-03-05T04:05:25;8.90;;;4.00;;
76157;SDS011;64907;51.574;6.502;2023-03-05T04:07:50;11.40;;;4.20;;
76157;SDS011;64907;51.574;6.502;2023-03-05T04:10:16;13.50;;;4.57;;
76157;SDS011;64907;51.574;6.502;2023-03-05T04:12:41;13.43;;;4.45;;
76157;SDS011;64907;51.574;6.502;2023-03-05T04:15:07;14.85;;;4.72;;
76157;SDS011;64907;51.574;6.502;2023-03-05T04:17:33;16.95;;;4.40;;
76157;SDS011;64907;51.574;6.502;2023-03-05T04:19:58;9.43;;;3.85;;
76157;SDS011;64907;51.574;6.502;2023-03-05T04:22:23;9.35;;;3.40;;
76157;SDS011;64907;51.574;6.502;2023-03-05T04:24:48;17.33;;;4.23;;
76157;SDS011;64907;51.574;6.502;2023-03-05T04:27:13;7.70;;;3.07;;
76157;SDS011;64907;51.574;6.502;2023-03-05T04:29:39;7.70;;;3.53;;
76157;SDS011;64907;51.574;6.502;2023-03-05T04:32:10;7.90;;;3.33;;
76157;SDS011;64907;51.574;6.502;2023-03-05T04:34:36;11.30;;;3.30;;
76157;SDS011;64907;51.574;6.502;2023-03-05T04:37:01;9.38;;;3.72;;
76157;SDS011;64907;51.574;6.502;2023-03-05T04:39:26;9.50;;;3.17;;
76157;SDS011;64907;51.574;6.502;2023-03-05T04:41:53;15.38;;;3.83;;
76157;SDS011;64907;51.574;6.502;2023-03-05T04:44:19;7.45;;;3.50;;
76157;SDS011;64907;51.574;6.502;2023-03-05T04:46:47;10.85;;;3.50;;
76157;SDS011;64907;51.574;6.502;2023-03-05T04:49:12;10.07;;;3.07;;
76157;SDS011;64907;51.574;6.502;2023-03-05T04:51:37;10.00;;;3.40;;
76157;SDS011;64907;51.574;6.502;2023-03-05T04:54:02;9.10;;;3.13;;
76157;SDS011;64907;51.574;6.502;2023-03-05T04:56:27;9.77;;;3.70;;
76157;SDS011;64907;51.574;6.502;2023-03-05T04:58:53;10.48;;;3.47;;
76157;SDS011;64907;51.574;6.502;2023-03-05T05:01:18;9.00;;;3.78;;
76157;SDS011;64907;51.574;6.502;2023-03-05T05:03:46;10.82;;;3.92;;
76157;SDS011;64907;51.574;6.502;2023-03-05T05:06:11;10.73;;;3.65;;
76157;SDS011;64907;51.574;6.502;2023-03-05T05:08:36;18.08;;;4.40;;
76157;SDS011;64907;51.574;6.502;2023-03-05T05:13:33;8.90;;;4.00;;
76157;SDS011;64907;51.574;6.502;2023-03-05T05:15:58;11.98;;;3.30;;
76157;SDS011;64907;51.574;6.502;2023-03-05T05:18:24;9.93;;;3.67;;
76157;SDS011;64907;51.574;6.502;2023-03-05T05:20:49;10.68;;;4.22;;
76157;SDS011;64907;51.574;6.502;2023-03-05T05:23:15;11.40;;;3.97;;
76157;SDS011;64907;51.574;6.502;2023-03-05T05:25:40;17.65;;;5.47;;
76157;SDS011;64907;51.574;6.502;2023-03-05T05:28:07;15.85;;;3.95;;
76157;SDS011;64907;51.574;6.502;2023-03-05T05:30:32;11.55;;;4.18;;
76157;SDS011;64907;51.574;6.502;2023-03-05T05:32:57;12.18;;;3.80;;
76157;SDS011;64907;51.574;6.502;2023-03-05T05:35:22;8.52;;;3.30;;
76157;SDS011;64907;51.574;6.502;2023-03-05T05:37:47;12.00;;;3.85;;
76157;SDS011;64907;51.574;6.502;2023-03-05T05:40:13;6.38;;;3.53;;
76157;SDS011;64907;51.574;6.502;2023-03-05T05:42:39;8.27;;;3.53;;
76157;SDS011;64907;51.574;6.502;2023-03-05T05:45:04;15.37;;;4.57;;
76157;SDS011;64907;51.574;6.502;2023-03-05T05:47:29;17.10;;;4.22;;
76157;SDS011;64907;51.574;6.502;2023-03-05T05:49:55;16.48;;;5.70;;
76157;SDS011;64907;51.574;6.502;2023-03-05T05:52:20;10.70;;;3.38;;
76157;SDS011;64907;51.574;6.502;2023-03-05T05:54:45;8.13;;;4.05;;
76157;SDS011;64907;51.574;6.502;2023-03-05T05:57:10;10.20;;;3.97;;
76157;SDS011;64907;51.574;6.502;2023-03-05T05:59:36;7.72;;;3.63;;
76157;SDS011;64907;51.574;6.502;2023-03-05T06:02:02;11.05;;;5.47;;
76157;SDS011;64907;51.574;6.502;2023-03-05T06:04:28;11.95;;;3.88;;
76157;SDS011;64907;51.574;6.502;2023-03-05T06:06:53;10.32;;;3.85;;
76157;SDS011;64907;51.574;6.502;2023-03-05T06:09:19;13.60;;;3.97;;
76157;SDS011;64907;51.574;6.502;2023-03-05T06:11:44;14.95;;;3.90;;
76157;SDS011;64907;51.574;6.502;2023-03-05T06:14:10;11.48;;;3.88;;
76157;SDS011;64907;51.574;6.502;2023-03-05T06:16:36;11.13;;;4.28;;
76157;SDS011;64907;51.574;6.502;2023-03-05T06:19:01;12.27;;;4.32;;
76157;SDS011;64907;51.574;6.502;2023-03-05T06:21:28;13.15;;;4.70;;
76157;SDS011;64907;51.574;6.502;2023-03-05T06:23:53;11.27;;;4.32;;
76157;SDS011;64907;51.574;6.502;2023-03-05T06:26:19;13.47;;;4.97;;
76157;SDS011;64907;51.574;6.502;2023-03-05T06:31:23;12.48;;;4.85;;
76157;SDS011;64907;51.574;6.502;2023-03-05T06:33:53;12.38;;;4.53;;
76157;SDS011;64907;51.574;6.502;2023-03-05T06:36:19;6.38;;;3.90;;
76157;SDS011;64907;51.574;6.502;2023-03-05T06:38:44;12.32;;;4.13;;
76157;SDS011;64907;51.574;6.502;2023-03-05T06:41:14;14.00;;;4.50;;
76157;SDS011;64907;51.574;6.502;2023-03-05T06:43:40;11.40;;;4.80;;
76157;SDS011;64907;51.574;6.502;2023-03-05T06:48:51;9.57;;;3.90;;
76157;SDS011;64907;51.574;6.502;2023-03-05T06:51:17;9.40;;;4.40;;
76157;SDS011;64907;51.574;6.502;2023-03-05T06:53:43;8.40;;;4.10;;
76157;SDS011;64907;51.574;6.502;2023-03-05T06:56:09;12.20;;;4.05;;
76157;SDS011;64907;51.574;6.502;2023-03-05T07:01:12;12.73;;;4.20;;
76157;SDS011;64907;51.574;6.502;2023-03-05T07:03:37;12.93;;;4.00;;
76157;SDS011;64907;51.574;6.502;2023-03-05T07:06:06;12.18;;;4.22;;
76157;SDS011;64907;51.574;6.502;2023-03-05T07:08:32;12.27;;;4.18;;
76157;SDS011;64907;51.574;6.502;2023-03-05T07:10:57;11.93;;;3.97;;
76157;SDS011;64907;51.574;6.502;2023-03-05T07:13:22;13.93;;;3.28;;
76157;SDS011;64907;51.574;6.502;2023-03-05T07:15:49;5.07;;;3.50;;
76157;SDS011;64907;51.574;6.502;2023-03-05T07:18:14;12.55;;;4.70;;
76157;SDS011;64907;51.574;6.502;2023-03-05T07:20:39;12.25;;;4.30;;
76157;SDS011;64907;51.574;6.502;2023-03-05T07:23:06;14.33;;;4.30;;
76157;SDS011;64907;51.574;6.502;2023-03-05T07:25:34;11.45;;;4.78;;
76157;SDS011;64907;51.574;6.502;2023-03-05T07:27:59;11.05;;;4.20;;
76157;SDS011;64907;51.574;6.502;2023-03-05T07:30:24;13.15;;;4.28;;
76157;SDS011;64907;51.574;6.502;2023-03-05T07:32:49;10.07;;;4.53;;
76157;SDS011;64907;51.574;6.502;2023-03-05T07:35:14;9.75;;;4.03;;
76157;SDS011;64907;51.574;6.502;2023-03-05T07:37:40;11.43;;;4.38;;
76157;SDS011;64907;51.574;6.502;2023-03-05T07:40:05;9.23;;;4.22;;
76157;SDS011;64907;51.574;6.502;2023-03-05T07:42:30;18.15;;;5.20;;
76157;SDS011;64907;51.574;6.502;2023-03-05T07:44:55;15.70;;;4.13;;
76157;SDS011;64907;51.574;6.502;2023-03-05T07:47:21;7.00;;;3.97;;
76157;SDS011;64907;51.574;6.502;2023-03-05T07:49:47;9.15;;;4.00;;
76157;SDS011;64907;51.574;6.502;2023-03-05T07:52:12;10.05;;;4.40;;
76157;SDS011;64907;51.574;6.502;2023-03-05T07:54:37;13.40;;;4.57;;
76157;SDS011;64907;51.574;6.502;2023-03-05T07:57:03;10.48;;;4.63;;
76157;SDS011;64907;51.574;6.502;2023-03-05T07:59:28;9.32;;;4.30;;
76157;SDS011;64907;51.574;6.502;2023-03-05T08:01:56;10.93;;;4.43;;
76157;SDS011;64907;51.574;6.502;2023-03-05T08:04:21;8.57;;;3.97;;
76157;SDS011;64907;51.574;6.502;2023-03-05T08:06:46;12.98;;;4.18;;
76157;SDS011;64907;51.574;6.502;2023-03-05T08:09:13;6.13;;;3.92;;
76157;SDS011;64907;51.574;6.502;2023-03-05T08:11:39;9.27;;;4.03;;
76157;SDS011;64907;51.574;6.502;2023-03-05T08:14:10;13.18;;;4.22;;
76157;SDS011;64907;51.574;6.502;2023-03-05T08:16:39;11.63;;;5.70;;
76157;SDS011;64907;51.574;6.502;2023-03-05T08:19:06;9.38;;;4.78;;
76157;SDS011;64907;51.574;6.502;2023-03-05T08:21:33;13.65;;;5.80;;
76157;SDS011;64907;51.574;6.502;2023-03-05T08:24:00;12.30;;;5.70;;
76157;SDS011;64907;51.574;6.502;2023-03-05T08:26:26;11.60;;;6.32;;
76157;SDS011;64907;51.574;6.502;2023-03-05T08:28:52;12.95;;;5.68;;
76157;SDS011;64907;51.574;6.502;2023-03-05T08:31:18;10.68;;;6.00;;
76157;SDS011;64907;51.574;6.502;2023-03-05T08:33:45;20.63;;;6.65;;
76157;SDS011;64907;51.574;6.502;2023-03-05T08:36:12;12.60;;;5.25;;
76157;SDS011;64907;51.574;6.502;2023-03-05T08:38:39;14.88;;;5.47;;
76157;SDS011;64907;51.574;6.502;2023-03-05T08:41:04;15.65;;;6.00;;
76157;SDS011;64907;51.574;6.502;2023-03-05T08:43:30;11.45;;;6.05;;
76157;SDS011;64907;51.574;6.502;2023-03-05T08:45:55;10.77;;;6.00;;
76157;SDS011;64907;51.574;6.502;2023-03-05T08:48:20;8.52;;;6.43;;
76157;SDS011;64907;51.574;6.502;2023-03-05T08:50:46;12.52;;;6.38;;
76157;SDS011;64907;51.574;6.502;2023-03-05T08:53:11;10.32;;;5.72;;
76157;SDS011;64907;51.574;6.502;2023-03-05T08:55:37;11.40;;;5.43;;
76157;SDS011;64907;51.574;6.502;2023-03-05T09:00:32;9.20;;;6.28;;
76157;SDS011;64907;51.574;6.502;2023-03-05T09:02:58;13.77;;;5.55;;
76157;SDS011;64907;51.574;6.502;2023-03-05T09:05:23;9.60;;;6.10;;
76157;SDS011;64907;51.574;6.502;2023-03-05T09:07:49;11.90;;;5.70;;
76157;SDS011;64907;51.574;6.502;2023-03-05T09:10:15;8.65;;;5.30;;
76157;SDS011;64907;51.574;6.502;2023-03-05T09:12:49;8.98;;;4.63;;
76157;SDS011;64907;51.574;6.502;2023-03-05T09:15:14;8.07;;;5.05;;
76157;SDS011;64907;51.574;6.502;2023-03-05T09:17:39;8.13;;;4.97;;
76157;SDS011;64907;51.574;6.502;2023-03-05T09:20:06;11.93;;;6.30;;
76157;SDS011;64907;51.574;6.502;2023-03-05T09:22:31;10.15;;;5.07;;
76157;SDS011;64907;51.574;6.502;2023-03-05T09:24:57;8.57;;;5.57;;
76157;SDS011;64907;51.574;6.502;2023-03-05T09:27:23;7.07;;;5.25;;
76157;SDS011;64907;51.574;6.502;2023-03-05T09:29:49;7.47;;;5.32;;
76157;SDS011;64907;51.574;6.502;2023-03-05T09:32:16;8.43;;;5.78;;
76157;SDS011;64907;51.574;6.502;2023-03-05T09:34:41;6.40;;;5.07;;
76157;SDS011;64907;51.574;6.502;2023-03-05T09:37:07;8.70;;;5.13;;
76157;SDS011;64907;51.574;6.502;2023-03-05T09:39:32;6.18;;;4.93;;
76157;SDS011;64907;51.574;6.502;2023-03-05T09:52:20;4.72;;;4.07;;
76157;SDS011;64907;51.574;6.502;2023-03-05T09:54:47;8.35;;;4.90;;
76157;SDS011;64907;51.574;6.502;2023-03-05T09:57:17;7.22;;;4.90;;
76157;SDS011;64907;51.574;6.502;2023-03-05T10:00:03;9.55;;;4.60;;
76157;SDS011;64907;51.574;6.502;2023-03-05T10:02:37;4.93;;;4.32;;
76157;SDS011;64907;51.574;6.502;2023-03-05T10:05:20;5.47;;;4.60;;
76157;SDS011;64907;51.574;6.502;2023-03-05T10:07:51;6.72;;;5.35;;
76157;SDS011;64907;51.574;6.502;2023-03-05T10:10:19;5.10;;;4.70;;
76157;SDS011;64907;51.574;6.502;2023-03-05T10:12:49;7.55;;;4.88;;
76157;SDS011;64907;51.574;6.502;2023-03-05T10:34:02;4.88;;;3.72;;
76157;SDS011;64907;51.574;6.502;2023-03-05T10:36:43;4.10;;;3.45;;
76157;SDS011;64907;51.574;6.502;2023-03-05T10:44:43;4.50;;;3.50;;
76157;SDS011;64907;51.574;6.502;2023-03-05T10:47:35;3.85;;;3.10;;
76157;SDS011;64907;51.574;6.502;2023-03-05T10:49:56;3.03;;;2.80;;
76157;SDS011;64907;51.574;6.502;2023-03-05T10:52:35;3.70;;;3.15;;
76157;SDS011;64907;51.574;6.502;2023-03-05T10:55:10;3.13;;;2.92;;
76157;SDS011;64907;51.574;6.502;2023-03-05T10:57:37;2.83;;;2.60;;
76157;SDS011;64907;51.574;6.502;2023-03-05T11:02:59;4.93;;;2.50;;
76157;SDS011;64907;51.574;6.502;2023-03-05T11:08:23;5.35;;;2.97;;
76157;SDS011;64907;51.574;6.502;2023-03-05T11:10:53;2.50;;;2.30;;
76157;SDS011;64907;51.574;6.502;2023-03-05T11:13:26;2.67;;;2.47;;
76157;SDS011;64907;51.574;6.502;2023-03-05T11:16:01;2.67;;;2.47;;
76157;SDS011;64907;51.574;6.502;2023-03-05T11:18:27;4.35;;;3.20;;
76157;SDS011;64907;51.574;6.502;2023-03-05T11:21:11;3.50;;;2.55;;
76157;SDS011;64907;51.574;6.502;2023-03-05T11:23:41;3.78;;;2.85;;
76157;SDS011;64907;51.574;6.502;2023-03-05T11:33:34;4.45;;;2.80;;
76157;SDS011;64907;51.574;6.502;2023-03-05T11:36:20;4.07;;;2.90;;
76157;SDS011;64907;51.574;6.502;2023-03-05T11:38:54;4.10;;;2.95;;
76157;SDS011;64907;51.574;6.502;2023-03-05T11:41:22;3.08;;;2.85;;
76157;SDS011;64907;51.574;6.502;2023-03-05T11:43:48;5.00;;;3.47;;
76157;SDS011;64907;51.574;6.502;2023-03-05T11:46:16;5.75;;;3.97;;
76157;SDS011;64907;51.574;6.502;2023-03-05T11:48:42;4.25;;;3.90;;
76157;SDS011;64907;51.574;6.502;2023-03-05T11:51:20;4.35;;;3.17;;
76157;SDS011;64907;51.574;6.502;2023-03-05T11:53:48;3.75;;;2.95;;
76157;SDS011;64907;51.574;6.502;2023-03-05T11:56:17;5.03;;;3.05;;
76157;SDS011;64907;51.574;6.502;2023-03-05T11:58:49;3.05;;;2.70;;
76157;SDS011;64907;51.574;6.502;2023-03-05T12:01:16;2.63;;;2.42;;
76157;SDS011;64907;51.574;6.502;2023-03-05T12:03:42;2.10;;;2.00;;
76157;SDS011;64907;51.574;6.502;2023-03-05T12:08:40;1.20;;;1.20;;
76157;SDS011;64907;51.574;6.502;2023-03-05T12:11:10;1.63;;;1.52;;
76157;SDS011;64907;51.574;6.502;2023-03-05T12:13:48;2.00;;;1.30;;
76157;SDS011;64907;51.574;6.502;2023-03-05T12:16:32;1.48;;;1.38;;
76157;SDS011;64907;51.574;6.502;2023-03-05T12:21:39;1.85;;;1.38;;
76157;SDS011;64907;51.574;6.502;2023-03-05T12:31:57;1.80;;;1.70;;
76157;SDS011;64907;51.574;6.502;2023-03-05T12:42:39;1.08;;;1.08;;
76157;SDS011;64907;51.574;6.502;2023-03-05T12:47:33;1.55;;;1.40;;
76157;SDS011;64907;51.574;6.502;2023-03-05T12:50:01;1.40;;;1.40;;
76157;SDS011;64907;51.574;6.502;2023-03-05T12:52:28;1.63;;;1.52;;
76157;SDS011;64907;51.574;6.502;2023-03-05T12:54:56;1.52;;;1.48;;
76157;SDS011;64907;51.574;6.502;2023-03-05T12:57:24;1.40;;;1.40;;
76157;SDS011;64907;51.574;6.502;2023-03-05T12:59:54;2.15;;;1.40;;
76157;SDS011;64907;51.574;6.502;2023-03-05T13:02:39;1.50;;;1.40;;
76157;SDS011;64907;51.574;6.502;2023-03-05T13:07:49;1.77;;;1.55;;
76157;SDS011;64907;51.574;6.502;2023-03-05T13:12:51;3.00;;;1.50;;
76157;SDS011;64907;51.574;6.502;2023-03-05T13:15:17;1.73;;;1.63;;
76157;SDS011;64907;51.574;6.502;2023-03-05T13:17:58;1.50;;;1.40;;
76157;SDS011;64907;51.574;6.502;2023-03-05T13:20:31;1.25;;;1.25;;
76157;SDS011;64907;51.574;6.502;2023-03-05T13:25:40;1.73;;;1.63;;
76157;SDS011;64907;51.574;6.502;2023-03-05T13:28:10;1.30;;;1.30;;
76157;SDS011;64907;51.574;6.502;2023-03-05T13:30:35;2.15;;;1.63;;
76157;SDS011;64907;51.574;6.502;2023-03-05T13:33:01;1.20;;;1.20;;
76157;SDS011;64907;51.574;6.502;2023-03-05T13:35:27;1.95;;;1.40;;
76157;SDS011;64907;51.574;6.502;2023-03-05T13:40:29;4.10;;;2.15;;
76157;SDS011;64907;51.574;6.502;2023-03-05T13:42:54;1.67;;;1.40;;
76157;SDS011;64907;51.574;6.502;2023-03-05T13:45:32;1.83;;;1.48;;
76157;SDS011;64907;51.574;6.502;2023-03-05T13:48:03;1.27;;;1.27;;
76157;SDS011;64907;51.574;6.502;2023-03-05T13:50:32;1.58;;;1.58;;
76157;SDS011;64907;51.574;6.502;2023-03-05T13:53:13;1.60;;;1.60;;
76157;SDS011;64907;51.574;6.502;2023-03-05T13:55:39;3.47;;;2.05;;
76157;SDS011;64907;51.574;6.502;2023-03-05T13:58:38;3.75;;;2.40;;
76157;SDS011;64907;51.574;6.502;2023-03-05T14:01:01;3.92;;;2.55;;
76157;SDS011;64907;51.574;6.502;2023-03-05T14:03:26;2.95;;;2.75;;
76157;SDS011;64907;51.574;6.502;2023-03-05T14:08:23;2.10;;;2.08;;
76157;SDS011;64907;51.574;6.502;2023-03-05T14:10:49;2.90;;;2.70;;
76157;SDS011;64907;51.574;6.502;2023-03-05T14:16:02;5.32;;;3.17;;
76157;SDS011;64907;51.574;6.502;2023-03-05T14:18:27;3.10;;;3.00;;
76157;SDS011;64907;51.574;6.502;2023-03-05T14:20:57;3.70;;;3.00;;
76157;SDS011;64907;51.574;6.502;2023-03-05T14:23:35;3.25;;;3.05;;
76157;SDS011;64907;51.574;6.502;2023-03-05T14:28:57;3.15;;;3.05;;
76157;SDS011;64907;51.574;6.502;2023-03-05T14:31:23;2.83;;;2.70;;
76157;SDS011;64907;51.574;6.502;2023-03-05T14:33:49;2.67;;;2.50;;
76157;SDS011;64907;51.574;6.502;2023-03-05T14:36:19;4.75;;;2.83;;
76157;SDS011;64907;51.574;6.502;2023-03-05T14:43:43;2.78;;;2.58;;
76157;SDS011;64907;51.574;6.502;2023-03-05T14:46:09;2.50;;;2.30;;
76157;SDS011;64907;51.574;6.502;2023-03-05T14:48:34;2.90;;;2.40;;
76157;SDS011;64907;51.574;6.502;2023-03-05T14:50:59;2.97;;;2.67;;
76157;SDS011;64907;51.574;6.502;2023-03-05T14:53:26;2.28;;;2.13;;
76157;SDS011;64907;51.574;6.502;2023-03-05T14:55:53;2.75;;;2.47;;
76157;SDS011;64907;51.574;6.502;2023-03-05T14:58:22;2.35;;;2.25;;
76157;SDS011;64907;51.574;6.502;2023-03-05T15:00:51;2.00;;;1.95;;
76157;SDS011;64907;51.574;6.502;2023-03-05T15:03:18;2.20;;;2.00;;
76157;SDS011;64907;51.574;6.502;2023-03-05T15:05:43;3.60;;;2.38;;
76157;SDS011;64907;51.574;6.502;2023-03-05T15:08:20;2.35;;;2.22;;
76157;SDS011;64907;51.574;6.502;2023-03-05T15:10:48;2.08;;;1.98;;
76157;SDS011;64907;51.574;6.502;2023-03-05T15:13:14;2.30;;;2.10;;
76157;SDS011;64907;51.574;6.502;2023-03-05T15:15:40;2.53;;;2.00;;
76157;SDS011;64907;51.574;6.502;2023-03-05T15:18:18;1.85;;;1.75;;
76157;SDS011;64907;51.574;6.502;2023-03-05T15:20:43;2.45;;;2.25;;
76157;SDS011;64907;51.574;6.502;2023-03-05T15:23:09;2.50;;;2.10;;
76157;SDS011;64907;51.574;6.502;2023-03-05T15:25:35;2.47;;;2.28;;
76157;SDS011;64907;51.574;6.502;2023-03-05T15:28:00;2.28;;;2.13;;
76157;SDS011;64907;51.574;6.502;2023-03-05T15:30:27;2.22;;;2.00;;
76157;SDS011;64907;51.574;6.502;2023-03-05T15:32:53;3.83;;;2.47;;
76157;SDS011;64907;51.574;6.502;2023-03-05T15:35:19;3.25;;;2.20;;
76157;SDS011;64907;51.574;6.502;2023-03-05T15:37:45;2.28;;;1.80;;
76157;SDS011;64907;51.574;6.502;2023-03-05T15:40:10;1.63;;;1.63;;
76157;SDS011;64907;51.574;6.502;2023-03-05T15:42:36;1.95;;;1.70;;
76157;SDS011;64907;51.574;6.502;2023-03-05T15:45:01;1.92;;;1.83;;
76157;SDS011;64907;51.574;6.502;2023-03-05T15:47:26;2.00;;;1.90;;
76157;SDS011;64907;51.574;6.502;2023-03-05T15:49:52;1.58;;;1.58;;
76157;SDS011;64907;51.574;6.502;2023-03-05T15:52:18;2.25;;;1.42;;
76157;SDS011;64907;51.574;6.502;2023-03-05T15:54:43;3.33;;;1.80;;
76157;SDS011;64907;51.574;6.502;2023-03-05T15:57:09;1.88;;;1.52;;
76157;SDS011;64907;51.574;6.502;2023-03-05T15:59:34;1.42;;;1.33;;
76157;SDS011;64907;51.574;6.502;2023-03-05T16:01:59;1.92;;;1.83;;
76157;SDS011;64907;51.574;6.502;2023-03-05T16:04:26;2.00;;;1.85;;
76157;SDS011;64907;51.574;6.502;2023-03-05T16:06:53;2.05;;;1.70;;
76157;SDS011;64907;51.574;6.502;2023-03-05T16:09:19;2.25;;;2.13;;
76157;SDS011;64907;51.574;6.502;2023-03-05T16:14:19;2.92;;;2.25;;
76157;SDS011;64907;51.574;6.502;2023-03-05T16:16:45;3.20;;;1.90;;
76157;SDS011;64907;51.574;6.502;2023-03-05T16:19:14;1.77;;;1.73;;
76157;SDS011;64907;51.574;6.502;2023-03-05T16:21:42;1.90;;;1.80;;
76157;SDS011;64907;51.574;6.502;2023-03-05T16:26:38;3.20;;;1.88;;
76157;SDS011;64907;51.574;6.502;2023-03-05T16:29:04;2.00;;;1.90;;
76157;SDS011;64907;51.574;6.502;2023-03-05T16:31:30;2.53;;;1.98;;
76157;SDS011;64907;51.574;6.502;2023-03-05T16:34:02;2.17;;;2.00;;
76157;SDS011;64907;51.574;6.502;2023-03-05T16:36:33;2.75;;;2.00;;
76157;SDS011;64907;51.574;6.502;2023-03-05T16:39:02;2.10;;;2.00;;
76157;SDS011;64907;51.574;6.502;2023-03-05T16:41:31;2.78;;;1.80;;
76157;SDS011;64907;51.574;6.502;2023-03-05T16:43:58;5.93;;;3.03;;
76157;SDS011;64907;51.574;6.502;2023-03-05T16:49:07;4.00;;;2.40;;
76157;SDS011;64907;51.574;6.502;2023-03-05T16:51:35;2.22;;;2.10;;
76157;SDS011;64907;51.574;6.502;2023-03-05T16:54:00;2.40;;;2.30;;